Time;durP1;ratioP1;P1;durP2;ratioP2;P2;SDS_P1;SDS_P2;PMS_P1;PMS_P2;Temp;Humidity;BMP_temperature;BMP_pressure;BME280_temperature;BME280_humidity;BME280_pressure;Samples;Min_cycle;Max_cycle;Signal;HPM_P1;HPM_P2
2022/06/05 00:02:42;;;;;;;10.23;6.38;;;16.60;99.90;;;;;;5091891;28;20028;-73
2022/06/05 00:05:07;;;;;;;8.60;6.65;;;16.50;99.90;;;;;;5096282;28;20028;-73
2022/06/05 00:08:07;;;;;;;12.15;6.93;;;16.50;99.90;;;;;;5079009;28;20035;-72
2022/06/05 00:10:39;;;;;;;7.80;6.10;;;16.50;99.90;;;;;;5100189;28;20046;-73
2022/06/05 00:13:28;;;;;;;11.43;7.05;;;16.40;99.90;;;;;;5081133;28;20122;-73
2022/06/05 00:15:55;;;;;;;8.57;6.60;;;16.50;99.90;;;;;;5091420;28;20031;-73
2022/06/05 00:18:20;;;;;;;7.13;6.07;;;16.50;99.90;;;;;;5092170;28;20032;-73
2022/06/05 00:20:46;;;;;;;10.05;7.13;;;16.40;99.90;;;;;;5077803;28;20021;-73
2022/06/05 00:23:12;;;;;;;8.40;6.72;;;16.40;99.90;;;;;;5090972;28;20108;-73
2022/06/05 00:25:52;;;;;;;6.80;6.05;;;16.40;99.90;;;;;;5091967;28;20028;-73
2022/06/05 00:28:18;;;;;;;6.88;6.28;;;16.40;99.90;;;;;;5080040;28;20781;-73
2022/06/05 00:30:44;;;;;;;9.05;6.90;;;16.30;99.90;;;;;;5091132;28;20060;-72
2022/06/05 00:33:23;;;;;;;10.43;7.00;;;16.30;99.90;;;;;;5091295;28;20119;-72
2022/06/05 00:35:56;;;;;;;7.05;6.45;;;16.30;99.90;;;;;;5091709;28;20024;-73
2022/06/05 00:38:41;;;;;;;8.35;6.57;;;16.30;99.90;;;;;;5091225;28;20044;-72
2022/06/05 00:41:09;;;;;;;10.85;7.43;;;16.30;99.90;;;;;;5091502;28;20034;-72
2022/06/05 00:43:36;;;;;;;7.00;6.30;;;16.30;99.90;;;;;;5091027;28;20055;-72
2022/06/05 00:46:02;;;;;;;11.38;6.70;;;16.30;99.90;;;;;;5091357;28;20024;-71
2022/06/05 00:48:27;;;;;;;7.38;6.55;;;16.30;99.90;;;;;;5091229;28;20463;-72
2022/06/05 00:50:53;;;;;;;9.48;6.55;;;16.30;99.90;;;;;;5090434;28;20110;-72
2022/06/05 00:53:18;;;;;;;9.05;6.75;;;16.30;99.90;;;;;;5091601;28;20040;-74
2022/06/05 00:55:49;;;;;;;8.05;7.22;;;16.20;99.90;;;;;;5091611;28;20520;-72
2022/06/05 00:58:16;;;;;;;;;;;16.20;99.90;;;;;;5090823;28;20396;-72
2022/06/05 01:00:45;;;;;;;9.98;6.28;;;16.30;99.90;;;;;;5091251;28;19911;-72
2022/06/05 01:03:12;;;;;;;8.52;6.70;;;16.20;99.90;;;;;;5091520;28;20024;-72
2022/06/05 01:05:39;;;;;;;7.72;6.55;;;16.20;99.90;;;;;;5090487;28;20476;-72
2022/06/05 01:08:06;;;;;;;12.23;7.47;;;16.20;99.90;;;;;;5081536;28;20037;-72
2022/06/05 01:10:40;;;;;;;9.23;7.15;;;16.20;99.90;;;;;;5086707;28;20016;-72
2022/06/05 01:13:35;;;;;;;8.43;6.93;;;16.20;99.90;;;;;;5090173;28;20087;-72
2022/06/05 01:16:20;;;;;;;7.82;6.43;;;16.20;99.90;;;;;;5090780;28;20028;-72
2022/06/05 01:19:09;;;;;;;9.68;6.38;;;16.10;99.90;;;;;;5091675;28;20102;-72
2022/06/05 01:21:59;;;;;;;12.30;7.00;;;16.10;99.90;;;;;;5086470;28;20028;-71
2022/06/05 01:24:49;;;;;;;9.73;6.70;;;16.10;99.90;;;;;;5096909;28;20153;-73
2022/06/05 01:27:19;;;;;;;9.00;6.88;;;16.10;99.90;;;;;;5077163;28;20028;-73
2022/06/05 01:29:59;;;;;;;7.28;6.38;;;16.10;99.90;;;;;;5091037;28;20024;-73
2022/06/05 01:32:40;;;;;;;10.40;7.07;;;16.10;99.90;;;;;;5083357;28;20128;-73
2022/06/05 01:35:31;;;;;;;6.13;5.63;;;16.20;99.90;;;;;;5083208;28;20115;-72
2022/06/05 01:38:07;;;;;;;9.23;6.68;;;16.20;99.90;;;;;;5097586;28;20020;-73
2022/06/05 01:40:40;;;;;;;7.68;6.22;;;16.30;99.90;;;;;;5076563;28;20484;-73
2022/06/05 01:43:15;;;;;;;8.98;5.65;;;16.30;99.90;;;;;;5077140;28;20046;-73
2022/06/05 01:45:53;;;;;;;9.30;6.40;;;16.30;99.90;;;;;;5097934;28;20028;-73
2022/06/05 01:48:23;;;;;;;8.45;6.57;;;16.40;99.90;;;;;;5096864;28;20031;-73
2022/06/05 01:50:53;;;;;;;9.50;6.13;;;16.50;99.90;;;;;;5097459;28;20020;-73
2022/06/05 01:53:29;;;;;;;8.07;5.78;;;16.50;99.90;;;;;;5097593;28;20040;-73
2022/06/05 01:56:01;;;;;;;6.60;5.93;;;16.50;99.90;;;;;;5096583;28;20450;-73
2022/06/05 01:58:40;;;;;;;9.63;6.07;;;16.50;99.90;;;;;;5097183;28;20061;-73
2022/06/05 02:01:15;;;;;;;7.05;5.80;;;16.60;99.90;;;;;;5101536;28;20073;-73
2022/06/05 02:03:48;;;;;;;7.88;6.32;;;16.60;99.90;;;;;;5098841;28;20035;-73
2022/06/05 02:06:20;;;;;;;6.50;5.32;;;16.70;99.90;;;;;;5097691;28;20027;-73
2022/06/05 02:08:58;;;;;;;7.53;5.82;;;16.60;99.90;;;;;;5096640;28;20494;-73
2022/06/05 02:11:31;;;;;;;6.88;6.35;;;16.60;99.90;;;;;;5100761;28;20471;-73
2022/06/05 02:14:09;;;;;;;8.30;6.75;;;16.60;99.90;;;;;;5097838;28;20068;-73
2022/06/05 02:16:37;;;;;;;9.05;6.35;;;16.70;99.90;;;;;;5103637;28;20103;-73
2022/06/05 02:19:09;;;;;;;8.13;6.55;;;16.60;99.90;;;;;;5098310;28;20425;-73
2022/06/05 02:21:37;;;;;;;9.13;6.65;;;16.60;99.90;;;;;;5097721;28;20035;-73
2022/06/05 02:24:04;;;;;;;6.82;6.25;;;16.60;99.90;;;;;;5096478;28;20031;-73
2022/06/05 02:26:30;;;;;;;7.50;6.70;;;16.60;99.90;;;;;;5097386;28;20024;-73
2022/06/05 02:28:56;;;;;;;13.10;7.05;;;16.60;99.90;;;;;;5096356;28;20115;-73
2022/06/05 02:31:40;;;;;;;11.40;6.80;;;16.50;99.90;;;;;;5093741;28;20031;-73
2022/06/05 02:34:33;;;;;;;12.13;7.53;;;16.50;99.90;;;;;;5081041;28;20104;-73
2022/06/05 02:37:03;;;;;;;10.32;7.40;;;16.40;99.90;;;;;;5081149;28;20387;-73
2022/06/05 02:39:59;;;;;;;8.23;7.53;;;16.40;99.90;;;;;;5093768;28;20380;-73
2022/06/05 02:42:39;;;;;;;9.68;7.70;;;16.40;99.90;;;;;;5094001;28;20115;-73
2022/06/05 02:45:17;;;;;;;8.57;7.72;;;16.30;99.90;;;;;;5092707;28;20057;-72
2022/06/05 02:47:51;;;;;;;9.60;8.00;;;16.20;99.90;;;;;;5093682;28;20081;-73
2022/06/05 02:50:32;;;;;;;12.90;8.90;;;16.00;99.90;;;;;;5092904;28;20528;-73
2022/06/05 02:53:07;;;;;;;12.50;8.75;;;15.80;99.90;;;;;;5093474;28;20426;-73
2022/06/05 02:55:33;;;;;;;10.75;8.85;;;15.80;99.90;;;;;;5080722;28;20028;-71
2022/06/05 02:57:59;;;;;;;13.88;9.60;;;15.70;99.90;;;;;;5092646;28;20035;-72
2022/06/05 03:00:27;;;;;;;9.98;8.82;;;15.60;99.90;;;;;;5093327;28;20105;-73
2022/06/05 03:05:38;;;;;;;9.75;8.82;;;15.40;99.90;;;;;;5093269;28;20035;-73
2022/06/05 03:08:06;;;;;;;11.50;9.77;;;15.40;99.90;;;;;;5093053;28;20118;-73
2022/06/05 03:10:31;;;;;;;12.30;9.10;;;15.40;99.90;;;;;;5093016;28;20426;-73
2022/06/05 03:12:57;;;;;;;9.90;8.93;;;15.40;99.90;;;;;;5092469;28;20029;-73
2022/06/05 03:15:23;;;;;;;12.85;8.88;;;15.40;99.90;;;;;;5092945;28;20047;-73
2022/06/05 03:17:49;;;;;;;9.73;8.82;;;15.30;99.90;;;;;;5092983;28;20380;-73
2022/06/05 03:20:16;;;;;;;9.63;8.45;;;15.20;99.90;;;;;;5092160;28;20388;-73
2022/06/05 03:22:42;;;;;;;10.48;9.35;;;15.10;99.90;;;;;;5092986;28;20146;-73
2022/06/05 03:25:08;;;;;;;13.88;9.32;;;15.10;99.90;;;;;;5091826;28;20131;-74
2022/06/05 03:27:34;;;;;;;10.73;9.63;;;15.10;99.90;;;;;;5092791;28;20020;-73
2022/06/05 03:30:00;;;;;;;10.38;9.38;;;15.20;99.90;;;;;;5092962;28;20039;-73
2022/06/05 03:32:27;;;;;;;14.88;9.73;;;15.20;99.90;;;;;;5092185;28;20161;-73
2022/06/05 03:34:53;;;;;;;12.40;10.18;;;15.20;99.90;;;;;;5092447;28;20038;-73
2022/06/05 03:37:19;;;;;;;11.93;10.25;;;15.10;99.90;;;;;;5093064;28;20099;-74
2022/06/05 03:39:44;;;;;;;13.90;10.07;;;15.00;99.90;;;;;;5092317;28;20035;-74
2022/06/05 03:42:10;;;;;;;18.33;9.80;;;14.90;99.90;;;;;;5093807;28;20024;-74
2022/06/05 03:44:37;;;;;;;11.63;9.93;;;14.80;99.90;;;;;;5093058;28;20376;-73
2022/06/05 03:47:04;;;;;;;15.18;10.30;;;14.80;99.90;;;;;;5091690;28;20105;-73
2022/06/05 03:49:31;;;;;;;15.63;10.27;;;14.80;99.90;;;;;;5092835;28;20502;-73
2022/06/05 03:51:56;;;;;;;14.02;9.73;;;14.90;99.90;;;;;;5091950;28;20031;-73
2022/06/05 03:54:22;;;;;;;13.98;9.65;;;14.90;99.90;;;;;;5091600;28;20093;-73
2022/06/05 03:56:47;;;;;;;12.10;9.75;;;15.00;99.90;;;;;;5092479;28;20023;-73
2022/06/05 03:59:13;;;;;;;16.40;9.68;;;14.90;99.90;;;;;;5092492;28;20052;-72
2022/06/05 04:01:39;;;;;;;11.13;9.93;;;14.90;99.90;;;;;;5091667;28;20016;-73
2022/06/05 04:04:04;;;;;;;13.18;9.05;;;14.90;99.90;;;;;;5092069;28;20051;-73
2022/06/05 04:06:31;;;;;;;13.45;9.07;;;14.90;99.90;;;;;;5096398;28;20039;-73
2022/06/05 04:08:58;;;;;;;11.07;9.52;;;15.00;99.90;;;;;;5095976;28;20020;-73
2022/06/05 04:11:24;;;;;;;13.73;9.18;;;14.90;99.90;;;;;;5092562;28;20043;-73
2022/06/05 04:13:50;;;;;;;15.23;10.50;;;14.90;99.90;;;;;;5091812;28;20081;-73
2022/06/05 04:16:21;;;;;;;10.70;9.60;;;14.80;99.90;;;;;;5093181;28;20020;-73
2022/06/05 04:18:49;;;;;;;13.52;9.95;;;14.80;99.90;;;;;;5095756;28;20036;-74
2022/06/05 04:21:18;;;;;;;13.68;9.25;;;14.90;99.90;;;;;;5095279;28;20024;-73
2022/06/05 04:23:44;;;;;;;12.25;10.43;;;14.90;99.90;;;;;;5093194;28;20497;-72
2022/06/05 04:26:12;;;;;;;12.45;10.23;;;14.80;99.90;;;;;;5091805;28;20035;-73
2022/06/05 04:28:38;;;;;;;11.32;10.02;;;14.80;99.90;;;;;;5091259;28;20623;-73
2022/06/05 04:31:14;;;;;;;13.18;9.75;;;14.90;99.90;;;;;;5091473;28;20032;-73
2022/06/05 04:33:39;;;;;;;11.23;9.57;;;14.80;99.90;;;;;;5091640;28;20032;-73
2022/06/05 04:36:05;;;;;;;12.18;10.00;;;14.80;99.90;;;;;;5090481;28;20484;-72
2022/06/05 04:38:31;;;;;;;13.93;9.27;;;14.80;99.90;;;;;;5091724;28;20028;-73
2022/06/05 04:40:56;;;;;;;11.48;9.45;;;14.80;99.90;;;;;;5091423;28;20024;-74
2022/06/05 04:43:22;;;;;;;10.55;9.50;;;14.80;99.90;;;;;;5076486;28;20027;-73
2022/06/05 04:45:48;;;;;;;13.02;9.95;;;14.80;99.90;;;;;;5091466;28;20024;-73
2022/06/05 04:48:14;;;;;;;12.13;9.95;;;14.80;99.90;;;;;;5091305;28;20062;-73
2022/06/05 04:50:40;;;;;;;14.35;10.00;;;14.80;99.90;;;;;;5090876;28;20036;-73
2022/06/05 04:53:05;;;;;;;11.05;9.90;;;14.80;99.90;;;;;;5091150;28;20075;-73
2022/06/05 04:55:31;;;;;;;15.90;10.50;;;14.80;99.90;;;;;;5091051;28;20028;-73
2022/06/05 04:57:57;;;;;;;13.10;11.07;;;14.80;99.90;;;;;;5090328;28;20503;-73
2022/06/05 05:00:23;;;;;;;14.23;11.20;;;14.80;99.90;;;;;;5090937;28;20130;-73
2022/06/05 05:02:49;;;;;;;15.50;10.20;;;14.80;99.90;;;;;;5091184;28;20106;-72
2022/06/05 05:05:15;;;;;;;12.52;10.13;;;14.80;99.90;;;;;;5090365;28;20100;-72
2022/06/05 05:07:41;;;;;;;13.18;10.95;;;14.80;99.90;;;;;;5091480;28;20032;-72
2022/06/05 05:10:07;;;;;;;14.00;10.35;;;14.80;99.90;;;;;;5090907;28;20026;-72
2022/06/05 05:12:33;;;;;;;12.63;10.57;;;14.80;99.90;;;;;;5090855;28;20016;-73
2022/06/05 05:14:59;;;;;;;13.55;11.05;;;14.80;99.90;;;;;;5091085;28;20043;-73
2022/06/05 05:17:25;;;;;;;15.00;11.10;;;14.80;99.90;;;;;;5090994;28;20492;-72
2022/06/05 05:19:50;;;;;;;19.95;11.55;;;14.80;99.90;;;;;;5090104;28;20353;-73
2022/06/05 05:22:16;;;;;;;15.00;11.32;;;14.80;99.90;;;;;;5090973;28;20023;-72
2022/06/05 05:24:43;;;;;;;17.15;10.98;;;14.70;99.90;;;;;;5090580;28;20032;-73
2022/06/05 05:27:08;;;;;;;16.40;11.32;;;14.80;99.90;;;;;;5090540;28;20028;-73
2022/06/05 05:29:34;;;;;;;17.67;11.43;;;14.80;99.90;;;;;;5091261;28;20107;-73
2022/06/05 05:32:00;;;;;;;17.85;11.40;;;14.80;99.90;;;;;;5090330;28;20463;-71
2022/06/05 05:34:25;;;;;;;17.17;11.70;;;14.80;99.90;;;;;;5090655;28;20384;-74
2022/06/05 05:36:51;;;;;;;16.58;12.25;;;14.80;99.90;;;;;;5091098;28;20529;-72
2022/06/05 05:42:08;;;;;;;13.52;11.23;;;14.80;99.90;;;;;;5078435;28;20111;-73
2022/06/05 05:44:40;;;;;;;18.25;12.40;;;14.70;99.90;;;;;;5090730;28;20539;-73
2022/06/05 05:47:09;;;;;;;18.10;11.85;;;14.70;99.90;;;;;;5090084;28;20515;-73
2022/06/05 05:49:35;;;;;;;17.55;12.38;;;14.70;99.90;;;;;;5091253;28;20052;-73
2022/06/05 05:52:01;;;;;;;17.95;11.60;;;14.80;99.90;;;;;;5070800;28;20028;-73
2022/06/05 05:54:26;;;;;;;16.48;12.48;;;14.70;99.90;;;;;;5082098;28;20401;-74
2022/06/05 05:56:52;;;;;;;14.48;11.57;;;14.70;99.90;;;;;;5084746;28;20021;-73
2022/06/05 05:59:19;;;;;;;12.75;11.35;;;14.70;99.90;;;;;;5098956;28;20177;-74
2022/06/05 06:01:45;;;;;;;12.40;11.15;;;14.70;99.90;;;;;;5105628;28;20051;-74
2022/06/05 06:04:11;;;;;;;13.55;12.05;;;14.70;99.90;;;;;;5103713;28;20023;-74
2022/06/05 06:06:42;;;;;;;16.63;12.63;;;14.70;99.90;;;;;;5107288;28;20047;-74
2022/06/05 06:09:08;;;;;;;14.65;10.95;;;14.80;99.90;;;;;;5107859;28;20581;-74
2022/06/05 06:11:33;;;;;;;15.60;12.63;;;14.80;99.90;;;;;;5110438;28;20039;-75
2022/06/05 06:13:59;;;;;;;16.85;11.43;;;14.90;99.90;;;;;;5116173;28;20028;-74
2022/06/05 06:16:28;;;;;;;14.27;11.65;;;14.90;99.90;;;;;;5108959;28;20049;-73
2022/06/05 06:18:55;;;;;;;12.95;11.75;;;15.00;99.90;;;;;;5107927;28;20020;-73
2022/06/05 06:21:21;;;;;;;17.48;13.07;;;15.10;99.90;;;;;;5109377;28;20027;-72
2022/06/05 06:23:47;;;;;;;14.02;12.05;;;15.00;99.90;;;;;;5110883;28;20059;-73
2022/06/05 06:26:13;;;;;;;17.88;12.05;;;15.10;99.90;;;;;;5113061;28;20060;-73
2022/06/05 06:28:39;;;;;;;14.98;11.95;;;15.10;99.90;;;;;;5115611;28;20110;-74
2022/06/05 06:31:11;;;;;;;16.58;12.95;;;15.20;99.90;;;;;;5110245;28;20028;-73
2022/06/05 06:33:38;;;;;;;14.60;11.63;;;15.20;99.90;;;;;;5081966;28;20093;-73
2022/06/05 06:36:06;;;;;;;14.05;12.43;;;15.30;99.90;;;;;;5093993;28;20036;-73
2022/06/05 06:38:32;;;;;;;17.73;12.50;;;15.30;99.90;;;;;;5091839;28;20475;-73
2022/06/05 06:41:04;;;;;;;18.85;12.85;;;15.30;99.90;;;;;;5092032;28;20042;-73
2022/06/05 06:43:30;;;;;;;17.77;12.27;;;15.40;99.90;;;;;;5080285;28;20020;-73
2022/06/05 06:45:56;;;;;;;15.10;12.18;;;15.50;99.90;;;;;;5093489;28;20024;-75
2022/06/05 06:48:21;;;;;;;16.30;12.13;;;15.40;99.90;;;;;;5091703;28;20032;-72
2022/06/05 06:50:47;;;;;;;16.77;12.93;;;15.60;99.90;;;;;;5091927;28;20056;-73
2022/06/05 06:53:13;;;;;;;17.83;11.73;;;15.70;99.90;;;;;;5091184;28;20132;-73
2022/06/05 06:55:38;;;;;;;14.85;11.80;;;15.70;99.90;;;;;;5092996;28;20016;-73
2022/06/05 06:58:04;;;;;;;15.73;12.68;;;15.70;99.90;;;;;;5091734;28;20036;-73
2022/06/05 07:00:30;;;;;;;15.05;12.77;;;15.80;99.90;;;;;;5092323;28;20135;-75
2022/06/05 07:02:56;;;;;;;14.45;12.90;;;15.80;99.90;;;;;;5085902;28;20476;-72
2022/06/05 07:05:21;;;;;;;12.98;11.23;;;15.80;99.90;;;;;;5092434;28;20047;-72
2022/06/05 07:07:47;;;;;;;15.35;12.75;;;15.90;99.90;;;;;;5094060;28;20020;-73
2022/06/05 07:10:13;;;;;;;12.95;11.60;;;16.10;99.90;;;;;;5092208;28;20449;-73
2022/06/05 07:12:38;;;;;;;13.57;11.60;;;16.10;99.90;;;;;;5081267;28;20027;-72
2022/06/05 07:15:05;;;;;;;12.30;10.88;;;16.20;99.90;;;;;;5093721;28;20024;-73
2022/06/05 07:17:31;;;;;;;11.95;10.82;;;16.20;99.90;;;;;;5087305;28;20132;-73
2022/06/05 07:19:57;;;;;;;13.13;11.75;;;16.40;99.90;;;;;;5080475;28;20024;-73
2022/06/05 07:22:23;;;;;;;12.32;11.07;;;16.30;99.90;;;;;;5092316;28;20089;-72
2022/06/05 07:24:52;;;;;;;12.27;11.07;;;16.40;99.90;;;;;;5089226;28;20024;-72
2022/06/05 07:27:18;;;;;;;13.23;11.82;;;16.50;99.90;;;;;;5091004;28;20051;-73
2022/06/05 07:29:44;;;;;;;15.90;12.35;;;16.60;99.90;;;;;;5089981;28;20024;-74
2022/06/05 07:32:11;;;;;;;16.33;11.55;;;16.60;99.90;;;;;;5090558;28;20081;-73
2022/06/05 07:34:37;;;;;;;12.38;11.02;;;16.70;99.90;;;;;;5092066;28;20119;-73
2022/06/05 07:37:03;;;;;;;14.35;12.63;;;16.80;99.90;;;;;;5092037;28;20183;-73
2022/06/05 07:39:29;;;;;;;15.57;12.38;;;17.00;99.90;;;;;;5091577;28;20031;-74
2022/06/05 07:41:58;;;;;;;15.23;12.07;;;17.10;99.90;;;;;;5091526;28;20514;-73
2022/06/05 07:44:25;;;;;;;12.18;10.52;;;17.10;99.90;;;;;;5091789;28;20085;-72
2022/06/05 07:46:51;;;;;;;13.55;11.85;;;17.30;99.90;;;;;;5091433;28;20016;-72
2022/06/05 07:49:16;;;;;;;13.40;10.57;;;17.50;99.90;;;;;;5092282;28;20054;-72
2022/06/05 07:54:31;;;;;;;12.45;11.18;;;17.80;99.90;;;;;;5091660;28;20434;-73
2022/06/05 07:57:09;;;;;;;11.13;10.15;;;18.00;99.90;;;;;;5091795;28;20116;-74
2022/06/05 07:59:38;;;;;;;10.98;9.98;;;18.10;99.90;;;;;;5091962;28;20048;-73
2022/06/05 08:02:10;;;;;;;11.55;10.52;;;18.20;99.90;;;;;;5090477;28;20028;-74
2022/06/05 08:04:36;;;;;;;11.68;10.52;;;18.30;99.90;;;;;;5092654;28;20020;-72
2022/06/05 08:07:05;;;;;;;12.32;10.40;;;18.40;99.90;;;;;;5090796;28;20077;-72
2022/06/05 08:09:31;;;;;;;14.18;10.95;;;18.50;99.90;;;;;;5093070;28;20036;-73
2022/06/05 08:11:57;;;;;;;10.48;9.55;;;18.60;99.90;;;;;;5090157;28;20111;-72
2022/06/05 08:14:23;;;;;;;11.27;9.85;;;18.80;99.90;;;;;;5092215;28;20117;-72
2022/06/05 08:16:49;;;;;;;10.85;9.85;;;19.00;99.90;;;;;;5092465;28;20027;-72
2022/06/05 08:19:18;;;;;;;11.63;10.18;;;19.10;99.90;;;;;;5092983;28;20456;-73
2022/06/05 08:21:45;;;;;;;11.82;10.63;;;19.30;99.90;;;;;;5091143;28;20112;-72
2022/06/05 08:24:11;;;;;;;12.15;9.98;;;19.40;99.90;;;;;;5091882;28;20043;-72
2022/06/05 08:26:37;;;;;;;11.30;10.27;;;19.50;99.90;;;;;;5092241;28;20020;-73
2022/06/05 08:29:03;;;;;;;11.27;10.15;;;19.60;99.90;;;;;;5087610;28;20041;-74
2022/06/05 08:31:29;;;;;;;11.38;10.38;;;19.80;99.90;;;;;;5092132;28;20027;-73
2022/06/05 08:33:58;;;;;;;11.63;10.32;;;19.90;99.90;;;;;;5091738;28;20032;-72
2022/06/05 08:36:25;;;;;;;12.15;9.70;;;20.00;99.90;;;;;;5091755;28;20012;-73
2022/06/05 08:41:48;;;;;;;15.73;9.90;;;20.20;99.90;;;;;;5091455;28;20023;-72
2022/06/05 08:44:36;;;;;;;11.75;9.18;;;20.40;99.90;;;;;;5084922;28;20496;-74
2022/06/05 08:47:24;;;;;;;10.88;9.75;;;20.50;99.90;;;;;;5092294;28;20024;-77
2022/06/05 08:50:03;;;;;;;11.48;9.55;;;20.60;99.90;;;;;;5079626;28;20361;-75
2022/06/05 08:52:39;;;;;;;10.88;9.75;;;20.80;99.90;;;;;;5091924;28;20417;-75
2022/06/05 08:55:08;;;;;;;11.93;10.73;;;20.90;99.90;;;;;;5092322;28;20043;-73
2022/06/05 08:57:54;;;;;;;11.07;9.80;;;21.00;99.90;;;;;;5091651;28;20027;-73
2022/06/05 09:00:34;;;;;;;16.90;11.55;;;21.00;99.90;;;;;;5092251;28;20050;-72
2022/06/05 09:03:16;;;;;;;10.30;9.27;;;21.10;99.90;;;;;;5091170;28;20023;-73
2022/06/05 09:05:54;;;;;;;13.93;10.90;;;21.20;99.90;;;;;;5091432;28;20044;-72
2022/06/05 09:08:23;;;;;;;10.55;9.55;;;21.30;99.90;;;;;;5085910;28;20103;-73
2022/06/05 09:10:54;;;;;;;13.18;10.13;;;21.40;99.90;;;;;;5090989;28;20491;-72
2022/06/05 09:13:31;;;;;;;10.75;9.68;;;21.50;99.90;;;;;;5091840;28;20055;-72
2022/06/05 09:16:00;;;;;;;8.80;8.10;;;21.60;99.90;;;;;;5090916;28;20613;-72
2022/06/05 09:18:30;;;;;;;10.63;9.73;;;21.70;99.90;;;;;;5090860;28;20019;-73
2022/06/05 09:20:58;;;;;;;;;;;21.80;99.90;;;;;;5091950;28;20023;-73
2022/06/05 09:23:55;;;;;;;8.82;7.90;;;21.70;99.90;;;;;;5089853;28;19974;-73
2022/06/05 09:26:47;;;;;;;11.18;9.05;;;21.90;99.90;;;;;;5088853;28;20028;-73
2022/06/05 09:29:21;;;;;;;9.95;9.05;;;22.10;99.90;;;;;;5080263;28;20112;-73
2022/06/05 09:31:53;;;;;;;10.30;9.48;;;22.00;99.90;;;;;;5078817;28;20070;-73
2022/06/05 09:34:47;;;;;;;9.73;8.73;;;22.10;99.90;;;;;;5079138;28;20040;-72
2022/06/05 09:37:25;;;;;;;9.23;8.32;;;22.20;99.90;;;;;;5081841;28;20089;-73
2022/06/05 09:40:01;;;;;;;10.70;9.80;;;22.20;99.90;;;;;;5091245;28;20529;-72
2022/06/05 09:42:38;;;;;;;8.43;7.78;;;22.20;99.90;;;;;;5095610;28;20028;-73
2022/06/05 09:45:23;;;;;;;8.50;7.82;;;22.30;99.90;;;;;;5095007;28;20019;-72
2022/06/05 09:48:18;;;;;;;9.68;8.68;;;22.30;99.90;;;;;;5087869;28;20115;-72
2022/06/05 09:50:44;;;;;;;9.43;8.45;;;22.30;99.90;;;;;;5093960;28;20414;-72
2022/06/05 09:53:16;;;;;;;9.45;8.65;;;22.40;99.90;;;;;;5094690;28;20032;-72
2022/06/05 09:55:45;;;;;;;9.45;8.65;;;22.40;99.90;;;;;;5095982;28;20394;-73
2022/06/05 09:58:25;;;;;;;10.73;9.43;;;22.40;99.90;;;;;;5094865;28;20024;-75
2022/06/05 10:00:53;;;;;;;10.30;9.40;;;22.30;99.90;;;;;;5082788;28;20038;-73
2022/06/05 10:03:21;;;;;;;10.48;9.55;;;22.30;99.90;;;;;;5095501;28;20030;-72
2022/06/05 10:06:19;;;;;;;10.98;8.45;;;22.20;99.90;;;;;;5081320;28;20036;-73
2022/06/05 10:09:15;;;;;;;10.18;9.35;;;22.20;99.90;;;;;;5094952;28;20051;-72
2022/06/05 10:11:49;;;;;;;9.18;8.30;;;22.30;99.90;;;;;;5087332;28;20039;-72
2022/06/05 10:14:18;;;;;;;8.82;8.02;;;22.20;99.90;;;;;;5092206;28;20525;-73
2022/06/05 10:17:06;;;;;;;8.85;8.07;;;22.30;99.90;;;;;;5093454;28;20020;-72
2022/06/05 10:20:10;;;;;;;8.63;7.88;;;22.30;99.90;;;;;;5091979;28;20119;-74
2022/06/05 10:23:02;;;;;;;8.30;7.65;;;22.40;99.90;;;;;;5095171;28;20123;-73
2022/06/05 10:25:46;;;;;;;11.15;10.20;;;22.40;99.90;;;;;;5095030;28;20449;-73
2022/06/05 10:28:18;;;;;;;10.45;9.50;;;22.50;99.90;;;;;;5092974;28;20028;-73
2022/06/05 10:31:08;;;;;;;11.43;10.40;;;22.50;99.90;;;;;;5092657;28;20024;-73
2022/06/05 10:34:04;;;;;;;11.38;10.32;;;22.50;99.90;;;;;;5093038;28;20128;-72
2022/06/05 10:36:49;;;;;;;17.58;10.43;;;22.40;99.90;;;;;;5090374;28;20025;-74
2022/06/05 10:39:18;;;;;;;11.15;9.90;;;22.40;99.90;;;;;;5078896;28;20032;-72
2022/06/05 10:42:02;;;;;;;12.02;10.82;;;22.40;99.90;;;;;;5093302;28;20107;-74
2022/06/05 10:44:40;;;;;;;12.15;11.15;;;22.40;99.90;;;;;;5093986;28;20020;-73
2022/06/05 10:47:19;;;;;;;11.95;10.63;;;22.30;99.90;;;;;;5092787;28;20028;-73
2022/06/05 10:50:03;;;;;;;10.10;9.30;;;22.20;99.90;;;;;;5091172;28;20016;-73
2022/06/05 10:52:34;;;;;;;9.43;8.65;;;22.30;99.90;;;;;;5092715;28;20063;-73
2022/06/05 10:55:37;;;;;;;10.68;9.68;;;22.30;99.90;;;;;;5093665;28;20035;-74
2022/06/05 10:58:27;;;;;;;11.57;10.50;;;22.20;99.90;;;;;;5093805;28;20436;-73
2022/06/05 11:01:17;;;;;;;12.30;10.95;;;22.20;99.90;;;;;;5093785;28;20036;-73
2022/06/05 11:03:58;;;;;;;11.05;10.25;;;22.30;99.90;;;;;;5063384;28;20125;-74
2022/06/05 11:06:36;;;;;;;12.00;10.88;;;22.20;99.90;;;;;;5093959;28;20024;-73
2022/06/05 11:09:17;;;;;;;14.30;10.13;;;22.20;99.90;;;;;;5092268;28;20027;-73
2022/06/05 11:15:05;;;;;;;11.70;10.80;;;22.20;99.90;;;;;;5084703;28;20127;-73
2022/06/05 11:18:11;;;;;;;12.75;11.65;;;22.20;99.90;;;;;;5091829;28;20108;-75
2022/06/05 11:20:42;;;;;;;14.15;12.05;;;22.10;99.90;;;;;;5093760;28;20026;-74
2022/06/05 11:23:18;;;;;;;10.80;9.82;;;22.00;99.90;;;;;;5094052;28;20437;-74
2022/06/05 11:25:52;;;;;;;13.02;11.93;;;22.00;99.90;;;;;;5093856;28;20028;-73
2022/06/05 11:28:48;;;;;;;10.68;9.88;;;21.90;99.90;;;;;;5093918;28;20046;-75
2022/06/05 11:31:18;;;;;;;12.65;11.57;;;21.70;99.90;;;;;;5093186;28;20036;-73
2022/06/05 11:33:55;;;;;;;11.97;10.63;;;21.70;99.90;;;;;;5093628;28;20039;-75
2022/06/05 11:36:29;;;;;;;13.23;11.93;;;21.50;99.90;;;;;;5093549;28;20020;-74
2022/06/05 11:39:24;;;;;;;13.27;12.07;;;21.50;99.90;;;;;;5082581;28;20020;-75
2022/06/05 11:42:29;;;;;;;13.23;12.13;;;21.40;99.90;;;;;;5079398;28;20384;-74
2022/06/05 11:45:19;;;;;;;13.52;12.27;;;21.30;99.90;;;;;;5092739;28;20034;-73
2022/06/05 11:48:06;;;;;;;12.15;10.85;;;21.20;99.90;;;;;;5093706;28;20032;-74
2022/06/05 11:50:36;;;;;;;15.13;13.25;;;21.20;99.90;;;;;;5080986;28;20479;-73
2022/06/05 11:53:30;;;;;;;13.30;12.23;;;21.10;99.90;;;;;;5092260;28;20088;-73
2022/06/05 11:56:17;;;;;;;13.40;12.20;;;21.00;99.90;;;;;;5092802;28;20472;-74
2022/06/05 11:59:09;;;;;;;12.45;11.25;;;21.00;99.90;;;;;;5092502;28;20050;-74
2022/06/05 12:01:43;;;;;;;14.10;12.50;;;21.00;99.90;;;;;;5093049;28;20024;-74
2022/06/05 12:04:28;;;;;;;14.90;13.43;;;21.00;99.90;;;;;;5093040;28;20046;-74
2022/06/05 12:06:58;;;;;;;14.40;13.20;;;21.00;99.90;;;;;;5092055;28;20039;-73
2022/06/05 12:09:31;;;;;;;14.60;13.07;;;20.80;99.90;;;;;;5093147;28;20372;-74
2022/06/05 12:12:08;;;;;;;13.27;11.52;;;20.80;99.90;;;;;;5092519;28;20031;-74
2022/06/05 12:14:42;;;;;;;16.10;14.13;;;20.70;99.90;;;;;;5092431;28;20032;-73
2022/06/05 12:17:26;;;;;;;15.27;13.63;;;20.70;99.90;;;;;;5092854;28;20055;-73
2022/06/05 12:20:30;;;;;;;17.17;15.45;;;20.60;99.90;;;;;;5092041;28;20032;-74
2022/06/05 12:23:16;;;;;;;16.55;15.07;;;20.50;99.90;;;;;;5080712;28;20020;-74
2022/06/05 12:25:55;;;;;;;16.95;15.30;;;20.30;99.90;;;;;;5092931;28;20032;-74
2022/06/05 12:28:59;;;;;;;18.27;16.48;;;20.20;99.90;;;;;;5091762;28;20031;-73
2022/06/05 12:31:35;;;;;;;18.80;16.90;;;20.00;99.90;;;;;;5058751;28;20043;-75
2022/06/05 12:34:12;;;;;;;20.15;17.27;;;19.80;99.90;;;;;;5091781;28;20039;-75
2022/06/05 12:36:41;;;;;;;19.70;17.80;;;19.60;99.90;;;;;;5092543;28;20024;-74
2022/06/05 12:39:27;;;;;;;19.98;18.08;;;19.50;99.90;;;;;;5092399;28;20034;-75
2022/06/05 12:42:14;;;;;;;21.52;18.80;;;19.50;99.90;;;;;;5082528;28;20035;-76
2022/06/05 12:44:45;;;;;;;20.00;17.92;;;19.40;99.90;;;;;;5086942;28;20020;-75
2022/06/05 12:47:37;;;;;;;20.20;17.73;;;19.20;99.90;;;;;;5090023;28;20048;-75
2022/06/05 12:50:18;;;;;;;20.15;18.23;;;19.20;99.90;;;;;;5087195;28;20157;-75
2022/06/05 12:52:57;;;;;;;20.25;18.10;;;19.10;99.90;;;;;;5090439;28;20081;-75
2022/06/05 12:55:25;;;;;;;21.00;18.80;;;19.10;99.90;;;;;;5087054;28;20381;-75
2022/06/05 12:57:58;;;;;;;21.45;19.27;;;19.10;99.90;;;;;;5088126;28;20020;-74
2022/06/05 13:00:23;;;;;;;19.98;17.42;;;19.10;99.90;;;;;;5088203;28;20048;-74
2022/06/05 13:02:58;;;;;;;20.83;18.52;;;19.10;99.90;;;;;;5087883;28;20505;-74
2022/06/05 13:06:01;;;;;;;21.25;19.05;;;19.10;99.90;;;;;;5087661;28;20418;-75
2022/06/05 13:08:49;;;;;;;22.10;19.92;;;19.10;99.90;;;;;;5089327;28;20077;-75
2022/06/05 13:11:27;;;;;;;21.25;19.00;;;19.00;99.90;;;;;;5090459;28;20085;-75
2022/06/05 13:14:13;;;;;;;26.83;20.58;;;18.90;99.90;;;;;;5090263;28;20056;-76
2022/06/05 13:16:55;;;;;;;22.27;19.85;;;18.90;99.90;;;;;;5089427;28;20519;-74
2022/06/05 13:19:25;;;;;;;29.05;21.13;;;18.90;99.90;;;;;;5090515;28;20028;-73
2022/06/05 13:22:22;;;;;;;26.83;22.13;;;18.70;99.90;;;;;;5091112;28;20016;-74